Time;durP1;ratioP1;P1;durP2;ratioP2;P2;SDS_P1;SDS_P2;PMS_P1;PMS_P2;Temp;Humidity;BMP_temperature;BMP_pressure;BME280_temperature;BME280_humidity;BME280_pressure;Samples;Min_cycle;Max_cycle;Signal;HPM_P1;HPM_P2
2021/11/07 00:01:55;;;;;;;94.52;54.30;;;;;;;4.87;83.33;100786.86;2772792;85;21062;-81
2021/11/07 00:05:56;;;;;;;43.35;20.45;;;;;;;4.86;83.75;100771.52;2772440;85;20984;-81
2021/11/07 00:10:03;;;;;;;45.23;27.22;;;;;;;4.69;84.90;100767.55;2772368;85;21081;-83
2021/11/07 00:14:00;;;;;;;45.98;27.07;;;;;;;4.60;84.58;100760.95;2772525;85;21118;-81
2021/11/07 00:18:07;;;;;;;57.70;33.88;;;;;;;4.47;85.46;100762.47;2773941;85;21098;-82
2021/11/07 00:26:17;;;;;;;59.00;37.20;;;;;;;4.25;88.19;100745.95;2773579;85;21070;-82
2021/11/07 00:30:26;;;;;;;71.00;38.45;;;;;;;4.20;87.55;100731.29;2772756;85;20995;-82
2021/11/07 00:46:51;;;;;;;30.97;21.68;;;;;;;4.38;86.72;100713.28;2773733;85;21024;-82
2021/11/07 00:55:33;;;;;;;31.52;19.77;;;;;;;4.32;85.70;100695.12;2779312;84;21032;-82
2021/11/07 01:03:29;;;;;;;19.95;14.30;;;;;;;4.55;85.07;100692.67;2780967;85;21658;-83
2021/11/07 01:07:31;;;;;;;21.37;15.20;;;;;;;4.67;84.59;100688.56;2780570;85;21066;-81
2021/11/07 01:11:32;;;;;;;24.18;14.78;;;;;;;4.72;84.62;100687.02;2781075;85;21630;-81
2021/11/07 01:15:36;;;;;;;23.32;12.68;;;;;;;4.84;84.25;100688.17;2780911;85;21083;-81
2021/11/07 01:19:38;;;;;;;21.82;16.23;;;;;;;4.94;83.73;100688.09;2781015;85;21012;-82
2021/11/07 01:23:54;;;;;;;17.73;11.53;;;;;;;5.04;83.35;100683.19;2781035;84;21012;-81
2021/11/07 01:27:51;;;;;;;16.90;11.35;;;;;;;4.95;82.92;100667.38;2779880;85;21078;-82
2021/11/07 01:31:55;;;;;;;12.15;8.48;;;;;;;5.07;82.77;100657.11;2780983;85;21647;-81
2021/11/07 01:40:20;;;;;;;12.82;8.48;;;;;;;5.17;83.16;100637.24;2780743;85;21077;-82
2021/11/07 01:44:20;;;;;;;11.35;7.83;;;;;;;5.24;83.04;100614.03;2780873;85;21035;-81
2021/11/07 01:48:27;;;;;;;18.00;8.95;;;;;;;5.38;82.53;100609.31;2781174;85;21051;-80
2021/11/07 01:52:26;;;;;;;15.68;8.80;;;;;;;5.46;82.16;100582.50;2779959;85;21063;-82
2021/11/07 01:56:28;;;;;;;10.32;7.28;;;;;;;5.46;81.63;100587.30;2762431;86;21608;-77
2021/11/07 02:00:32;;;;;;;10.20;7.05;;;;;;;5.56;81.48;100589.82;2767378;86;21063;-83
2021/11/07 02:04:34;;;;;;;12.68;8.18;;;;;;;5.66;81.08;100572.13;2715349;87;21051;-81
2021/11/07 02:08:35;;;;;;;10.58;6.50;;;;;;;5.80;80.79;100553.72;2762332;86;21044;-83
2021/11/07 02:12:40;;;;;;;10.35;6.90;;;;;;;5.96;80.26;100555.48;2715496;87;21031;-82
2021/11/07 02:16:41;;;;;;;7.97;5.53;;;;;;;6.06;80.00;100535.53;2762361;86;21620;-80
2021/11/07 02:20:45;;;;;;;9.40;6.37;;;;;;;6.10;79.39;100534.44;2767286;86;21080;-83
2021/11/07 02:24:47;;;;;;;10.13;5.90;;;;;;;6.14;79.06;100533.31;2715557;87;21050;-81
2021/11/07 02:28:49;;;;;;;8.08;6.58;;;;;;;6.17;78.93;100522.17;2762280;86;21095;-82
2021/11/07 02:32:51;;;;;;;4.78;3.80;;;;;;;6.14;78.79;100516.59;2767158;86;21111;-82
2021/11/07 02:36:55;;;;;;;7.17;5.05;;;;;;;6.05;78.96;100505.27;2715392;86;21066;-82
2021/11/07 02:40:56;;;;;;;8.28;6.33;;;;;;;6.23;78.67;100508.59;2762398;86;21071;-82
2021/11/07 02:44:58;;;;;;;9.50;7.05;;;;;;;6.28;78.59;100506.52;2767005;86;21060;-79
2021/11/07 02:49:04;;;;;;;10.10;6.83;;;;;;;6.25;78.38;100513.31;2715164;86;21066;-82
2021/11/07 02:53:06;;;;;;;11.45;7.03;;;;;;;6.29;78.59;100522.77;2760592;85;21087;-82
2021/11/07 02:57:12;;;;;;;10.45;6.33;;;;;;;6.28;77.43;100504.73;2754476;86;21081;-83
2021/11/07 03:01:21;;;;;;;10.32;6.90;;;;;;;6.26;77.14;100506.62;2755244;86;21624;-81
2021/11/07 03:05:23;;;;;;;9.98;7.35;;;;;;;6.26;77.28;100484.17;2755057;86;21078;-81
2021/11/07 03:09:29;;;;;;;12.23;7.03;;;;;;;6.30;76.59;100476.91;2754644;86;21058;-82
2021/11/07 03:13:31;;;;;;;10.20;6.67;;;;;;;6.22;76.74;100473.41;2754312;85;21062;-83
2021/11/07 03:17:33;;;;;;;7.67;5.45;;;;;;;6.16;77.24;100482.17;2754007;86;21066;-82
2021/11/07 03:21:34;;;;;;;13.62;8.48;;;;;;;6.12;78.27;100475.77;2754331;86;21042;-83
2021/11/07 03:26:04;;;;;;;10.23;6.22;;;;;;;6.24;78.42;100465.38;2754885;86;21011;-83
2021/11/07 03:29:53;;;;;;;7.12;5.50;;;;;;;6.41;78.41;100445.87;2748409;85;21115;-83
2021/11/07 03:33:57;;;;;;;7.45;5.80;;;;;;;6.52;77.91;100431.98;2754507;86;21086;-80
2021/11/07 03:37:57;;;;;;;10.60;6.85;;;;;;;6.63;77.22;100416.28;2754175;85;21050;-82
2021/11/07 03:42:02;;;;;;;8.33;6.00;;;;;;;6.72;76.94;100406.92;2754110;85;21038;-81
2021/11/07 03:46:04;;;;;;;9.68;5.00;;;;;;;6.73;76.83;100401.17;2754447;86;21030;-82
2021/11/07 03:50:07;;;;;;;7.15;5.22;;;;;;;6.79;76.51;100387.09;2754031;86;21101;-82
2021/11/07 03:54:11;;;;;;;8.23;6.15;;;;;;;6.79;76.27;100384.91;2755639;84;21102;-84
2021/11/07 03:58:12;;;;;;;9.15;5.10;;;;;;;6.91;76.38;100377.52;2760851;86;21070;-82
2021/11/07 04:02:14;;;;;;;8.43;5.33;;;;;;;6.95;76.20;100377.68;2761186;85;21567;-81
2021/11/07 04:06:17;;;;;;;5.62;4.47;;;;;;;7.04;75.82;100373.59;2762801;86;21117;-78
2021/11/07 04:10:19;;;;;;;7.05;5.67;;;;;;;7.11;75.94;100365.61;2764484;86;21102;-81
2021/11/07 04:14:21;;;;;;;12.63;9.40;;;;;;;7.18;75.55;100358.12;2764558;85;21114;-78
2021/11/07 04:18:23;;;;;;;8.68;6.05;;;;;;;7.27;75.23;100357.98;2762986;86;21097;-83
2021/11/07 04:22:25;;;;;;;5.83;5.28;;;;;;;7.31;75.11;100357.31;2767310;85;21046;-83
2021/11/07 04:26:27;;;;;;;6.55;5.55;;;;;;;7.32;75.14;100351.90;2796499;84;21030;-80
2021/11/07 04:30:29;;;;;;;12.47;6.10;;;;;;;7.40;75.29;100343.44;2766385;86;21076;-82
2021/11/07 04:34:30;;;;;;;10.20;6.37;;;;;;;7.37;74.76;100335.72;2791624;84;21595;-83
2021/11/07 04:38:34;;;;;;;6.42;5.60;;;;;;;7.37;74.85;100319.84;2736632;87;21093;-83
2021/11/07 04:42:36;;;;;;;8.65;6.33;;;;;;;7.34;75.23;100305.00;2766445;86;21057;-82
2021/11/07 04:46:38;;;;;;;6.15;5.40;;;;;;;7.41;74.96;100289.56;2791871;84;21042;-75
2021/11/07 04:50:41;;;;;;;8.83;6.75;;;;;;;7.37;75.54;100282.79;2736841;87;21081;-82
2021/11/07 04:54:42;;;;;;;7.12;5.72;;;;;;;7.48;75.32;100272.32;2760310;86;21041;-83
2021/11/07 04:58:44;;;;;;;8.75;6.35;;;;;;;7.51;75.03;100273.89;2796752;85;21590;-82
2021/11/07 05:02:47;;;;;;;6.60;5.87;;;;;;;7.53;75.30;100259.61;2737249;87;21041;-81
2021/11/07 05:06:51;;;;;;;6.08;5.30;;;;;;;7.70;74.98;100245.67;2771292;86;21022;-81
2021/11/07 05:10:53;;;;;;;6.42;5.00;;;;;;;7.71;74.85;100250.84;2796659;85;20987;-80
2021/11/07 05:14:56;;;;;;;9.38;6.20;;;;;;;7.72;74.65;100247.23;2737312;87;21030;-82
2021/11/07 05:18:58;;;;;;;8.70;6.92;;;;;;;7.72;74.15;100253.86;2748152;86;21062;-83
2021/11/07 05:23:00;;;;;;;6.72;6.00;;;;;;;7.83;74.25;100253.09;2748159;86;21033;-82
2021/11/07 05:27:02;;;;;;;8.30;5.95;;;;;;;7.83;74.21;100243.00;2747838;86;21383;-82
2021/11/07 05:31:03;;;;;;;7.55;5.55;;;;;;;7.87;74.34;100232.55;2747980;86;21050;-82
2021/11/07 05:35:07;;;;;;;10.05;5.33;;;;;;;7.85;74.08;100224.70;2748093;86;21066;-81
2021/11/07 05:39:08;;;;;;;8.78;6.20;;;;;;;7.92;74.12;100218.98;2747959;86;20983;-81
2021/11/07 05:43:10;;;;;;;9.13;7.03;;;;;;;7.95;73.82;100214.78;2748605;86;20988;-82
2021/11/07 05:47:12;;;;;;;8.95;5.72;;;;;;;8.04;73.36;100207.98;2748871;86;21054;-81
2021/11/07 05:51:14;;;;;;;8.03;6.65;;;;;;;8.07;72.91;100203.77;2748511;86;21053;-82
2021/11/07 05:55:17;;;;;;;10.35;7.80;;;;;;;8.06;73.30;100196.32;2736318;86;21576;-79
2021/11/07 05:59:19;;;;;;;9.90;6.87;;;;;;;8.08;73.50;100194.41;2769747;86;21076;-81
2021/11/07 06:03:22;;;;;;;10.25;7.00;;;;;;;8.11;74.00;100203.45;2769629;86;21061;-81
2021/11/07 06:07:24;;;;;;;11.80;8.80;;;;;;;8.13;73.86;100205.50;2769296;85;21025;-82
2021/11/07 06:11:26;;;;;;;9.30;6.10;;;;;;;8.15;74.03;100199.61;2769142;85;21620;-79
2021/11/07 06:15:28;;;;;;;10.60;8.00;;;;;;;8.21;74.09;100207.59;2769234;85;21052;-80
2021/11/07 06:19:29;;;;;;;10.28;6.28;;;;;;;8.23;73.84;100202.16;2769096;85;21482;-83
2021/11/07 06:23:32;;;;;;;10.03;7.17;;;;;;;8.21;73.90;100194.34;2768654;85;21013;-81
2021/11/07 06:27:35;;;;;;;6.30;5.80;;;;;;;8.20;73.35;100187.81;2768706;85;21088;-79
2021/11/07 06:31:37;;;;;;;14.00;8.43;;;;;;;8.25;73.44;100190.97;2768396;85;21120;-81
2021/11/07 06:35:38;;;;;;;8.18;5.37;;;;;;;8.32;73.02;100185.59;2768974;85;21088;-82
2021/11/07 06:39:40;;;;;;;12.55;9.80;;;;;;;8.37;73.00;100178.14;2768936;85;21603;-82
2021/11/07 06:43:42;;;;;;;9.30;6.08;;;;;;;8.49;73.12;100177.70;2769088;85;21088;-80
2021/11/07 06:47:43;;;;;;;9.13;6.00;;;;;;;8.54;72.99;100166.30;2769897;85;21009;-78
2021/11/07 06:51:46;;;;;;;8.80;5.90;;;;;;;8.61;72.37;100154.75;2770375;86;21111;-81
2021/11/07 06:55:47;;;;;;;6.87;6.17;;;;;;;8.68;71.42;100129.48;2776876;85;21118;-82
2021/11/07 06:59:49;;;;;;;10.25;7.60;;;;;;;8.80;71.27;100126.36;2784449;85;20984;-82
2021/11/07 07:03:51;;;;;;;6.30;5.60;;;;;;;8.90;70.29;100111.91;2784211;85;21031;-82
2021/11/07 07:08:06;;;;;;;10.60;5.15;;;;;;;9.04;70.04;100100.67;2784307;85;21071;-80
2021/11/07 07:12:15;;;;;;;7.50;5.40;;;;;;;9.16;69.30;100101.05;2785581;83;21524;-80
2021/11/07 07:16:57;;;;;;;8.08;6.40;;;;;;;9.29;69.24;100100.45;2785409;83;21055;-74
2021/11/07 07:28:47;;;;;;;12.58;7.80;;;;;;;9.55;69.45;100092.19;2788226;85;20968;-76
2021/11/07 07:32:56;;;;;;;;;;;;;;;9.57;68.82;100098.22;2790286;83;21142;-74
2021/11/07 07:36:54;;;;;;;11.97;9.15;;;;;;;9.70;68.77;100087.94;2785777;85;20163;-78
2021/11/07 07:40:56;;;;;;;13.32;9.43;;;;;;;9.71;68.63;100074.52;2786911;85;21031;-75
2021/11/07 07:45:01;;;;;;;11.40;7.62;;;;;;;9.63;68.52;100069.47;2787047;85;21050;-76
2021/11/07 07:49:03;;;;;;;12.60;8.75;;;;;;;9.57;69.02;100062.88;2787445;85;21095;-81
2021/11/07 07:53:06;;;;;;;12.05;8.00;;;;;;;9.74;68.49;100066.79;2787168;85;21113;-75
2021/11/07 07:57:08;;;;;;;13.10;8.93;;;;;;;9.81;69.03;100070.63;2808545;84;21086;-78
2021/11/07 08:01:10;;;;;;;13.25;9.45;;;;;;;9.85;67.95;100061.45;2815178;84;21022;-79
2021/11/07 08:05:14;;;;;;;11.45;7.78;;;;;;;9.98;67.83;100060.41;2814910;83;21077;-73
2021/11/07 08:09:15;;;;;;;11.20;8.53;;;;;;;9.92;67.40;100052.96;2815474;83;21068;-78
2021/11/07 08:13:17;;;;;;;11.70;7.95;;;;;;;9.84;67.02;100050.94;2815218;83;21294;-73
2021/11/07 08:17:19;;;;;;;9.20;8.28;;;;;;;9.77;67.10;100051.09;2815164;83;21323;-78
2021/11/07 08:21:21;;;;;;;11.35;7.78;;;;;;;9.56;67.05;100042.09;2815613;84;21014;-76
2021/11/07 08:25:23;;;;;;;10.88;7.05;;;;;;;9.41;67.34;100038.88;2815810;84;21087;-76
2021/11/07 08:29:26;;;;;;;9.35;6.90;;;;;;;9.34;67.90;100032.40;2815911;84;21045;-77
2021/11/07 08:33:27;;;;;;;14.87;10.00;;;;;;;9.29;68.15;100022.14;2764962;84;21078;-76
2021/11/07 08:37:40;;;;;;;12.78;8.78;;;;;;;9.20;69.09;100009.59;2764103;86;21077;-77
2021/11/07 08:41:46;;;;;;;12.73;9.83;;;;;;;9.20;69.11;100018.89;2761907;86;21099;-75
2021/11/07 09:03:29;;;;;;;10.72;7.87;;;;;;;9.77;69.61;100001.45;2682533;89;21096;-75
2021/11/07 09:07:37;;;;;;;10.63;7.45;;;;;;;9.95;68.71;100008.86;2615210;91;21112;-72
2021/11/07 09:11:29;;;;;;;15.30;8.15;;;;;;;9.98;69.16;100013.45;2680300;88;21045;-70
2021/11/07 09:15:34;;;;;;;12.53;7.05;;;;;;;9.95;69.77;100010.19;2682120;87;21014;-71
2021/11/07 09:19:39;;;;;;;14.68;7.40;;;;;;;9.80;70.79;100005.68;2682257;89;21140;-73
2021/11/07 09:23:51;;;;;;;13.50;9.08;;;;;;;9.82;71.87;100007.72;2681879;88;21108;-75
2021/11/07 09:27:56;;;;;;;14.58;10.15;;;;;;;9.75;72.77;100014.52;2615871;91;21035;-75
2021/11/07 09:40:23;;;;;;;18.30;10.90;;;;;;;9.51;72.85;99987.20;2713169;88;21055;-71
2021/11/07 09:44:26;;;;;;;13.15;10.78;;;;;;;9.48;73.53;99979.50;2712093;87;21075;-75
2021/11/07 09:48:32;;;;;;;10.75;9.00;;;;;;;9.50;72.58;99981.53;2712248;87;21076;-76
2021/11/07 09:52:37;;;;;;;11.12;9.05;;;;;;;9.58;72.97;99984.89;2711729;87;21076;-70
2021/11/07 09:56:35;;;;;;;14.43;10.75;;;;;;;9.65;72.93;99978.09;2725016;85;21082;-70
2021/11/07 10:00:43;;;;;;;13.80;10.85;;;;;;;9.67;72.17;99978.80;2755392;86;20999;-71
2021/11/07 10:04:47;;;;;;;18.07;12.65;;;;;;;9.69;72.05;99968.89;2755577;86;21023;-74
2021/11/07 10:08:48;;;;;;;19.40;11.83;;;;;;;9.68;72.49;99964.55;2747521;85;21082;-72
2021/11/07 10:12:56;;;;;;;24.02;16.87;;;;;;;9.77;72.62;99960.28;2747235;86;21123;-71
2021/11/07 10:16:55;;;;;;;28.12;18.05;;;;;;;9.88;73.27;99958.55;2745661;86;21090;-74
2021/11/07 10:21:05;;;;;;;26.02;17.32;;;;;;;9.97;72.60;99956.43;2747733;86;21027;-72
2021/11/07 10:25:00;;;;;;;26.33;19.25;;;;;;;10.21;73.20;99953.98;2745236;85;21111;-74
2021/11/07 10:29:04;;;;;;;36.93;23.38;;;;;;;10.36;72.62;99953.16;2754572;84;21114;-73
2021/11/07 10:33:53;;;;;;;19.73;14.50;;;;;;;10.47;72.30;99953.09;2755965;82;21131;-71
2021/11/07 10:54:24;;;;;;;5.72;4.75;;;;;;;11.11;72.48;99943.55;2746939;86;21065;-69
2021/11/07 10:58:30;;;;;;;5.75;3.80;;;;;;;11.23;72.09;99942.94;2713992;85;21103;-71
2021/11/07 11:02:40;;;;;;;5.42;3.87;;;;;;;11.31;72.99;99938.25;2761772;86;21019;-75
2021/11/07 11:06:57;;;;;;;7.55;5.37;;;;;;;11.31;72.75;99928.45;2715948;87;21095;-80
2021/11/07 11:11:10;;;;;;;7.25;4.92;;;;;;;11.33;73.34;99918.98;2762725;86;21053;-71
2021/11/07 11:15:21;;;;;;;6.87;4.80;;;;;;;11.36;73.13;99911.56;2715401;84;20992;-70
2021/11/07 11:19:41;;;;;;;6.72;4.10;;;;;;;11.39;72.50;99902.43;2759535;83;21026;-69
2021/11/07 11:28:16;;;;;;;5.35;4.10;;;;;;;11.46;73.58;99892.06;2747786;84;21066;-74
2021/11/07 11:32:21;;;;;;;6.47;3.10;;;;;;;11.51;73.63;99879.18;2746500;84;21014;-69
2021/11/07 11:36:30;;;;;;;4.97;3.65;;;;;;;11.56;71.99;99867.09;2747320;86;21027;-73
2021/11/07 11:44:40;;;;;;;4.97;3.55;;;;;;;11.74;72.62;99850.38;2722736;86;21061;-69
2021/11/07 11:53:44;;;;;;;4.08;3.58;;;;;;;11.83;72.45;99859.33;2811252;83;21007;-73
2021/11/07 12:02:11;;;;;;;4.87;3.83;;;;;;;11.81;72.37;99854.64;2811717;84;21050;-70
2021/11/07 12:06:32;;;;;;;4.70;2.30;;;;;;;11.85;73.60;99856.87;2806413;84;21042;-73
2021/11/07 12:10:37;;;;;;;6.20;3.47;;;;;;;11.79;73.20;99852.14;2810393;84;21085;-81
2021/11/07 12:14:58;;;;;;;3.35;3.05;;;;;;;11.82;73.52;99846.99;2810318;84;21015;-77
2021/11/07 12:19:03;;;;;;;3.85;2.72;;;;;;;11.76;72.61;99840.92;2800514;84;21026;-75
2021/11/07 12:23:32;;;;;;;3.02;2.20;;;;;;;11.62;72.70;99829.72;2755005;86;21066;-76
2021/11/07 12:27:53;;;;;;;3.20;2.12;;;;;;;11.59;73.74;99831.34;2810752;84;21113;-79
2021/11/07 12:32:06;;;;;;;1.80;1.62;;;;;;;11.55;73.40;99821.97;2755151;86;21016;-74
2021/11/07 12:36:25;;;;;;;2.45;2.12;;;;;;;11.49;74.44;99825.19;2810537;83;21058;-79
2021/11/07 12:41:05;;;;;;;2.00;1.80;;;;;;;11.50;73.86;99819.73;2807107;84;21031;-71
2021/11/07 12:45:27;;;;;;;2.05;1.70;;;;;;;11.46;73.59;99823.67;2808673;84;21015;-80
2021/11/07 12:49:31;;;;;;;2.27;1.40;;;;;;;11.38;74.03;99818.20;2755367;86;21094;-78
2021/11/07 12:54:24;;;;;;;3.42;2.22;;;;;;;11.34;74.32;99819.47;2810702;84;21027;-77
2021/11/07 12:58:25;;;;;;;2.90;2.17;;;;;;;11.33;73.69;99817.80;2750634;86;21679;-79
2021/11/07 13:02:34;;;;;;;2.25;1.82;;;;;;;11.29;73.96;99833.20;2726653;86;21039;-81
2021/11/07 13:06:36;;;;;;;2.08;1.65;;;;;;;11.20;73.64;99835.39;2657292;89;21035;-72
2021/11/07 13:15:06;;;;;;;2.03;1.37;;;;;;;11.21;74.06;99838.41;2727740;86;21104;-75
2021/11/07 13:27:29;;;;;;;1.90;1.80;;;;;;;11.06;74.07;99842.81;2725915;86;21033;-81
2021/11/07 13:31:39;;;;;;;3.35;3.02;;;;;;;11.00;73.25;99825.61;2724924;87;21045;-80
2021/11/07 13:35:31;;;;;;;3.25;1.85;;;;;;;10.95;73.45;99824.34;2724502;87;21017;-78
2021/11/07 13:39:37;;;;;;;1.72;1.62;;;;;;;10.94;73.59;99820.00;2725756;87;21112;-82
2021/11/07 13:43:38;;;;;;;2.50;2.30;;;;;;;10.95;73.81;99825.16;2726019;87;21742;-80
2021/11/07 13:47:44;;;;;;;2.27;2.08;;;;;;;10.98;73.86;99822.22;2727154;87;21033;-74
2021/11/07 13:52:04;;;;;;;4.45;2.08;;;;;;;10.96;73.88;99818.03;2726577;87;21060;-69
2021/11/07 13:56:10;;;;;;;2.62;2.05;;;;;;;10.92;74.06;99811.31;2707814;85;21524;-75
2021/11/07 14:00:17;;;;;;;2.65;2.20;;;;;;;10.97;74.38;99815.73;2757428;85;21385;-71
2021/11/07 14:04:19;;;;;;;2.60;2.20;;;;;;;10.95;74.46;99815.03;2758370;86;21050;-78
2021/11/07 14:08:21;;;;;;;4.42;2.80;;;;;;;10.90;74.85;99811.92;2759765;86;21038;-71
2021/11/07 14:12:46;;;;;;;2.55;2.02;;;;;;;10.92;75.10;99808.66;2760789;86;21011;-71
2021/11/07 14:16:58;;;;;;;4.28;2.27;;;;;;;10.88;74.90;99808.09;2760816;85;21077;-71
2021/11/07 14:21:04;;;;;;;3.42;2.35;;;;;;;10.82;75.28;99796.69;2759876;85;21042;-71
2021/11/07 14:25:10;;;;;;;4.25;2.65;;;;;;;10.82;75.80;99802.00;2760024;85;21690;-71
2021/11/07 14:29:32;;;;;;;2.67;2.47;;;;;;;10.76;75.98;99811.37;2760283;86;21040;-72
2021/11/07 14:33:36;;;;;;;5.78;3.12;;;;;;;10.73;76.10;99808.14;2759473;85;21102;-70
2021/11/07 14:46:41;;;;;;;5.05;2.30;;;;;;;10.57;77.26;99801.53;2758031;86;21035;-79
2021/11/07 14:50:55;;;;;;;3.15;2.65;;;;;;;10.48;76.93;99799.21;2756898;86;21070;-76
2021/11/07 14:55:00;;;;;;;3.80;2.62;;;;;;;10.60;77.35;99796.44;2758070;85;21027;-73
2021/11/07 15:03:22;;;;;;;3.33;2.75;;;;;;;10.53;77.36;99804.13;2769489;85;21067;-77
2021/11/07 15:11:50;;;;;;;2.08;1.92;;;;;;;10.53;77.53;99805.45;2769194;85;21016;-80
2021/11/07 15:15:53;;;;;;;3.90;2.22;;;;;;;10.49;76.93;99810.70;2769104;85;21050;-72
2021/11/07 15:20:00;;;;;;;3.10;2.37;;;;;;;10.52;76.98;99808.63;2770021;85;21055;-70
2021/11/07 15:24:11;;;;;;;3.05;2.75;;;;;;;10.49;76.60;99814.69;2770166;85;20999;-73
2021/11/07 15:28:15;;;;;;;7.10;3.02;;;;;;;10.50;76.46;99817.20;2770838;85;21035;-70
2021/11/07 15:32:17;;;;;;;2.47;1.92;;;;;;;10.48;76.63;99812.50;2770632;85;21004;-79
2021/11/07 15:36:31;;;;;;;5.10;2.33;;;;;;;10.43;76.83;99811.61;2768670;85;21448;-76
2021/11/07 15:40:32;;;;;;;3.00;2.10;;;;;;;10.45;76.97;99811.45;2768913;85;21046;-77
2021/11/07 15:44:51;;;;;;;8.18;1.92;;;;;;;10.44;76.82;99815.09;2769079;85;21119;-78
2021/11/07 15:48:50;;;;;;;2.12;1.82;;;;;;;10.42;76.76;99813.92;2769341;85;21066;-72
2021/11/07 15:52:59;;;;;;;3.80;2.00;;;;;;;10.38;76.65;99810.30;2771208;85;21406;-72
2021/11/07 16:05:26;;;;;;;2.65;2.00;;;;;;;10.44;77.09;99805.78;2770956;85;21059;-75
2021/11/07 16:17:44;;;;;;;2.90;2.70;;;;;;;10.46;76.75;99814.47;2747402;85;21063;-76
2021/11/07 16:21:48;;;;;;;11.15;3.12;;;;;;;10.35;77.33;99814.06;2767714;85;22107;-76
2021/11/07 16:25:50;;;;;;;3.12;2.85;;;;;;;10.40;76.90;99817.17;2699784;87;21050;-78
2021/11/07 16:29:52;;;;;;;3.60;2.47;;;;;;;10.39;77.01;99825.27;2746472;86;21050;-80
2021/11/07 16:33:57;;;;;;;2.72;2.20;;;;;;;10.32;77.04;99826.30;2699920;86;21015;-77
2021/11/07 16:38:10;;;;;;;1.85;1.75;;;;;;;10.35;77.05;99826.53;2746148;86;21027;-79
2021/11/07 16:42:09;;;;;;;17.45;3.60;;;;;;;10.33;77.35;99822.66;2697489;87;21035;-80
2021/11/07 16:46:08;;;;;;;4.80;3.47;;;;;;;10.38;77.26;99825.75;2760662;85;21054;-72
2021/11/07 16:50:11;;;;;;;3.67;2.58;;;;;;;10.42;76.84;99820.56;2770020;84;21047;-82
2021/11/07 16:54:22;;;;;;;5.15;2.60;;;;;;;10.41;76.70;99832.15;2768641;85;22311;-82
2021/11/07 16:58:23;;;;;;;6.20;2.87;;;;;;;10.44;76.70;99841.69;2767027;85;21004;-82
2021/11/07 17:10:37;;;;;;;3.77;2.33;;;;;;;10.42;76.62;99853.80;2771681;85;21020;-77
2021/11/07 17:14:40;;;;;;;5.67;3.20;;;;;;;10.37;76.78;99853.31;2769554;85;21101;-76
2021/11/07 17:18:42;;;;;;;7.70;2.80;;;;;;;10.39;76.59;99855.84;2770891;85;21035;-70
2021/11/07 17:27:07;;;;;;;6.55;3.47;;;;;;;10.36;77.08;99858.78;2769644;85;21071;-79
2021/11/07 17:31:12;;;;;;;4.70;2.42;;;;;;;10.33;77.25;99853.23;2770933;85;21086;-77
2021/11/07 17:35:20;;;;;;;2.98;2.45;;;;;;;10.33;76.63;99843.93;2770612;85;21071;-71
2021/11/07 17:56:33;;;;;;;3.87;2.75;;;;;;;10.40;77.72;99862.84;2771875;84;21063;-72
2021/11/07 18:00:41;;;;;;;6.00;3.02;;;;;;;10.37;77.53;99864.45;2771998;82;21117;-71
2021/11/07 18:04:44;;;;;;;4.35;2.75;;;;;;;10.36;77.61;99867.58;2771319;85;20995;-71
2021/11/07 18:08:53;;;;;;;4.97;3.05;;;;;;;10.36;78.26;99870.75;2771441;85;21078;-72
2021/11/07 18:12:52;;;;;;;4.47;3.15;;;;;;;10.35;78.08;99873.88;2771014;85;21067;-71
2021/11/07 18:16:56;;;;;;;4.95;2.72;;;;;;;10.28;78.19;99874.08;2771746;85;21027;-70
2021/11/07 18:20:58;;;;;;;7.12;3.42;;;;;;;10.31;78.17;99879.59;2771526;85;21003;-73
2021/11/07 18:25:02;;;;;;;8.73;4.83;;;;;;;10.30;78.44;99889.40;2771361;84;21063;-73
2021/11/07 18:29:03;;;;;;;5.03;3.37;;;;;;;10.35;78.91;99877.87;2771373;85;21028;-70
2021/11/07 18:33:05;;;;;;;3.98;3.25;;;;;;;10.33;79.03;99881.15;2771691;83;21046;-72
2021/11/07 18:37:07;;;;;;;7.15;4.33;;;;;;;10.33;78.84;99889.13;2772001;82;21378;-72
2021/11/07 18:41:09;;;;;;;4.12;3.72;;;;;;;10.34;78.77;99884.16;2772663;85;21509;-70
2021/11/07 18:45:11;;;;;;;3.58;3.15;;;;;;;10.38;78.82;99888.23;2771297;85;21301;-69
2021/11/07 18:49:13;;;;;;;5.05;3.08;;;;;;;10.35;78.89;99889.01;2771544;85;21456;-70
2021/11/07 18:53:15;;;;;;;9.35;4.17;;;;;;;10.31;79.13;99883.11;2770832;82;21051;-72
2021/11/07 18:57:21;;;;;;;6.15;3.83;;;;;;;10.29;78.61;99882.40;2771529;85;21098;-70
2021/11/07 19:01:23;;;;;;;4.62;3.37;;;;;;;10.20;78.52;99877.39;2778381;85;20996;-70
2021/11/07 19:05:25;;;;;;;6.45;2.92;;;;;;;10.05;78.82;99874.73;2778148;85;21015;-73
2021/11/07 19:09:27;;;;;;;4.83;2.70;;;;;;;9.95;79.41;99880.00;2778047;85;21038;-71
2021/11/07 19:13:29;;;;;;;4.55;3.40;;;;;;;9.85;79.43;99874.16;2778551;84;21030;-70
2021/11/07 19:17:31;;;;;;;9.58;3.92;;;;;;;9.79;79.37;99875.17;2777847;85;21082;-72
2021/11/07 19:21:34;;;;;;;5.62;3.10;;;;;;;9.70;79.36;99881.59;2778665;85;21023;-72
2021/11/07 19:25:37;;;;;;;4.55;3.40;;;;;;;9.62;79.66;99885.88;2777790;85;21082;-70
2021/11/07 19:29:41;;;;;;;6.00;3.85;;;;;;;9.52;79.94;99889.31;2778488;85;21078;-71
2021/11/07 19:33:43;;;;;;;6.60;3.98;;;;;;;9.42;80.26;99890.58;2778577;85;21089;-71
2021/11/07 19:37:49;;;;;;;3.92;3.50;;;;;;;9.37;80.46;99893.25;2778281;85;21054;-71
2021/11/07 19:41:50;;;;;;;4.83;3.27;;;;;;;9.29;80.54;99897.39;2779163;85;21401;-66
2021/11/07 19:45:57;;;;;;;5.72;3.00;;;;;;;9.24;80.85;99896.08;2778469;85;21082;-70
2021/11/07 19:49:59;;;;;;;5.25;4.00;;;;;;;9.19;81.13;99906.24;2777875;85;21007;-70
2021/11/07 19:54:03;;;;;;;7.05;3.67;;;;;;;9.16;81.19;99906.50;2778507;84;21066;-72
2021/11/07 19:58:06;;;;;;;4.67;4.12;;;;;;;9.09;81.39;99912.79;2776384;84;21035;-72
2021/11/07 20:02:21;;;;;;;6.37;4.40;;;;;;;9.03;81.52;99921.23;2770592;85;21008;-78
2021/11/07 20:06:31;;;;;;;8.03;4.45;;;;;;;8.91;81.75;99922.59;2767640;85;21051;-71
2021/11/07 20:10:30;;;;;;;8.18;4.85;;;;;;;8.83;81.90;99927.66;2767838;85;21090;-71
2021/11/07 20:14:36;;;;;;;7.80;4.45;;;;;;;8.75;82.36;99932.75;2770409;84;21035;-71
2021/11/07 20:18:40;;;;;;;7.58;4.75;;;;;;;8.70;82.41;99934.44;2769676;85;28176;-70
2021/11/07 20:22:43;;;;;;;6.40;4.08;;;;;;;8.63;82.94;99936.73;2769609;85;21079;-71
2021/11/07 20:26:48;;;;;;;5.42;3.95;;;;;;;8.60;83.09;99940.13;2769425;85;21143;-71
2021/11/07 20:30:51;;;;;;;11.53;4.83;;;;;;;8.55;82.86;99941.81;2770522;85;21082;-70
2021/11/07 20:34:58;;;;;;;6.75;4.58;;;;;;;8.49;82.87;99943.09;2770285;85;20984;-71
2021/11/07 20:38:59;;;;;;;8.45;4.97;;;;;;;8.41;83.21;99949.00;2776517;85;21030;-70
2021/11/07 20:43:08;;;;;;;8.40;4.37;;;;;;;8.35;83.75;99942.86;2780850;85;21072;-71
2021/11/07 20:47:32;;;;;;;5.03;4.53;;;;;;;8.33;84.08;99956.72;2745413;86;21052;-73
2021/11/07 20:51:29;;;;;;;7.35;3.77;;;;;;;8.32;84.84;99952.38;2745067;86;21043;-71
2021/11/07 20:55:44;;;;;;;7.35;4.08;;;;;;;8.38;85.25;99957.19;2745701;86;21047;-71
2021/11/07 20:59:45;;;;;;;9.05;5.60;;;;;;;8.46;86.11;99954.44;2741708;86;21015;-71
2021/11/07 21:03:55;;;;;;;9.98;4.65;;;;;;;8.59;86.25;99952.52;2736758;87;21131;-71
2021/11/07 21:07:57;;;;;;;;;;;;;;;8.76;86.12;99950.34;2738629;87;21091;-72
2021/11/07 21:29:02;;;;;;;6.47;3.92;;;;;;;9.21;83.28;99966.17;2732822;86;21052;-69
2021/11/07 21:33:03;;;;;;;6.28;4.35;;;;;;;9.22;83.03;99965.70;2799401;84;21047;-69
2021/11/07 21:37:14;;;;;;;5.20;3.83;;;;;;;9.16;82.63;99968.36;2799426;85;21075;-69
2021/11/07 21:41:25;;;;;;;5.58;4.03;;;;;;;9.12;82.57;99965.60;2783118;85;21093;-71
2021/11/07 21:45:21;;;;;;;5.35;3.60;;;;;;;9.03;82.87;99968.98;2798574;84;21020;-70
2021/11/07 21:49:26;;;;;;;4.72;3.20;;;;;;;8.99;83.09;99973.22;2798904;84;21023;-69
2021/11/07 21:53:28;;;;;;;6.05;4.83;;;;;;;8.98;83.42;99967.55;2798984;84;21118;-70
2021/11/07 21:57:30;;;;;;;3.98;3.42;;;;;;;9.02;83.58;99976.58;2799464;85;21027;-70
2021/11/07 22:01:33;;;;;;;8.18;4.30;;;;;;;9.06;83.55;99974.89;2809817;84;21084;-69
2021/11/07 22:05:36;;;;;;;7.70;3.77;;;;;;;9.06;83.14;99974.06;2810354;83;20999;-69
2021/11/07 22:09:38;;;;;;;5.50;4.03;;;;;;;9.06;82.73;99978.05;2810603;84;21077;-70
2021/11/07 22:13:39;;;;;;;5.97;4.70;;;;;;;9.07;82.49;99982.39;2811210;84;21002;-69
2021/11/07 22:22:11;;;;;;;6.08;3.95;;;;;;;8.95;82.73;99990.35;2747054;86;21126;-69
2021/11/07 22:26:17;;;;;;;3.83;3.50;;;;;;;8.83;82.98;99992.17;2746694;86;21033;-70